Time;durP1;ratioP1;P1;durP2;ratioP2;P2;SDS_P1;SDS_P2;PMS_P1;PMS_P2;Temp;Humidity;BMP_temperature;BMP_pressure;BME280_temperature;BME280_humidity;BME280_pressure;Samples;Min_cycle;Max_cycle;Signal;HPM_P1;HPM_P2
2021/04/15 11:35:20;;;;;;;55.55;44.95;;;;;;;3.86;84.46;97911.39;1848463;76;22345;-64
2021/04/15 11:38:24;;;;;;;54.70;42.30;;;;;;;3.84;84.42;97916.15;1788636;79;21405;-64
2021/04/15 11:41:28;;;;;;;;;;;;;;;;;;;;;
2021/04/15 11:44:06;;;;;;;42.93;37.33;;;;;;;4.09;84.33;97917.20;1870134;76;22010;-62
2021/04/15 11:46:51;;;;;;;42.53;37.93;;;;;;;4.13;84.28;97915.65;1842689;76;20963;-62
2021/04/15 11:49:37;;;;;;;39.55;35.30;;;;;;;4.25;83.85;97916.01;1782020;79;20983;-62
2021/04/15 11:52:34;;;;;;;34.43;30.70;;;;;;;4.36;83.89;97908.44;1798207;79;20943;-62
2021/04/15 11:55:15;;;;;;;37.93;34.03;;;;;;;4.50;83.71;97912.27;1796467;79;21000;-62
2021/04/15 11:57:56;;;;;;;39.98;35.78;;;;;;;4.56;82.83;97913.90;1787234;79;20994;-63
2021/04/15 12:00:34;;;;;;;41.40;37.08;;;;;;;4.58;82.75;97910.47;1767423;81;20926;-63
2021/04/15 12:03:20;;;;;;;34.40;30.70;;;;;;;4.62;82.85;97912.87;1773710;79;21390;-62
2021/04/15 12:05:56;;;;;;;32.05;26.87;;;;;;;4.67;82.37;97911.59;1802830;79;28438;-61
2021/04/15 12:08:39;;;;;;;29.48;26.60;;;;;;;4.75;82.44;97919.09;1807281;79;21005;-61
2021/04/15 12:11:28;;;;;;;31.68;28.45;;;;;;;4.84;81.83;97915.72;1810720;79;21129;-62
2021/04/15 12:14:44;;;;;;;24.55;22.15;;;;;;;4.88;81.77;97918.64;1752956;80;20983;-61
2021/04/15 12:17:28;;;;;;;23.73;21.33;;;;;;;4.97;80.95;97913.67;1799665;79;21372;-66
2021/04/15 12:20:20;;;;;;;20.10;18.15;;;;;;;4.99;80.80;97913.70;1785443;78;21002;-61
2021/04/15 12:23:26;;;;;;;20.10;18.00;;;;;;;4.96;80.26;97911.55;1777078;79;21049;-63
2021/04/15 12:26:16;;;;;;;23.10;20.95;;;;;;;4.88;79.75;97914.66;1801411;77;21225;-63
2021/04/15 12:29:14;;;;;;;23.95;21.57;;;;;;;4.83;80.21;97909.31;1791286;79;20994;-62
2021/04/15 12:32:36;;;;;;;19.30;17.40;;;;;;;4.89;80.78;97908.31;1788667;79;21600;-66
2021/04/15 12:35:32;;;;;;;19.30;17.45;;;;;;;4.95;80.03;97908.60;1758386;80;21414;-61
2021/04/15 12:38:22;;;;;;;22.17;17.87;;;;;;;4.99;80.27;97904.92;1750619;82;21082;-62
2021/04/15 12:41:22;;;;;;;17.45;15.72;;;;;;;5.05;80.27;97904.69;1722753;82;21058;-61
2021/04/15 12:44:19;;;;;;;18.00;16.10;;;;;;;5.13;80.25;97909.53;1729875;82;20993;-62
2021/04/15 12:46:56;;;;;;;16.65;15.05;;;;;;;5.13;79.92;97896.78;1735142;82;21191;-61
2021/04/15 12:49:50;;;;;;;18.30;16.37;;;;;;;5.16;80.21;97894.39;1718365;82;21026;-60
2021/04/15 12:52:30;;;;;;;20.08;18.02;;;;;;;5.25;79.98;97890.19;1732541;82;21219;-62
2021/04/15 12:55:29;;;;;;;19.65;17.65;;;;;;;5.33;79.93;97891.03;1720154;82;21050;-62
2021/04/15 12:58:21;;;;;;;17.82;16.12;;;;;;;5.45;79.44;97888.97;1729198;82;21009;-64
2021/04/15 13:01:17;;;;;;;18.12;16.32;;;;;;;5.51;79.07;97882.60;1712633;82;21224;-65
2021/04/15 13:03:54;;;;;;;18.57;16.17;;;;;;;5.52;78.79;97876.24;1748110;82;21018;-65
2021/04/15 13:07:05;;;;;;;19.65;17.75;;;;;;;5.57;78.46;97879.45;1749219;82;20956;-65
2021/04/15 13:09:39;;;;;;;19.02;17.12;;;;;;;5.59;78.09;97883.16;1750341;81;21075;-65
2021/04/15 13:12:25;;;;;;;20.85;18.75;;;;;;;5.60;78.26;97883.44;1749044;82;21014;-64
2021/04/15 13:15:01;;;;;;;25.77;23.02;;;;;;;5.58;78.02;97886.38;1708036;84;21163;-64
2021/04/15 13:17:43;;;;;;;23.98;21.52;;;;;;;5.50;77.77;97885.01;1692494;84;21022;-65
2021/04/15 13:20:25;;;;;;;26.35;23.57;;;;;;;5.43;77.73;97896.41;1719612;83;21240;-64
2021/04/15 13:23:10;;;;;;;26.60;24.02;;;;;;;5.37;77.88;97892.11;1712965;83;20962;-65
2021/04/15 13:25:58;;;;;;;25.60;23.00;;;;;;;5.35;78.27;97891.57;1720629;83;21498;-63
2021/04/15 13:28:56;;;;;;;23.45;21.10;;;;;;;5.41;78.39;97885.23;1713171;83;23104;-63
2021/04/15 13:31:44;;;;;;;23.55;21.12;;;;;;;5.45;77.49;97888.97;1713110;83;21492;-63
2021/04/15 13:34:30;;;;;;;25.90;23.32;;;;;;;5.39;77.68;97892.64;1713118;83;20938;-64
2021/04/15 13:37:41;;;;;;;28.80;25.82;;;;;;;5.31;77.65;97894.48;1705267;83;21206;-64
2021/04/15 13:40:24;;;;;;;28.67;25.77;;;;;;;5.27;77.96;97890.75;1673416;85;21236;-65
2021/04/15 13:42:58;;;;;;;22.50;20.43;;;;;;;5.27;77.79;97900.57;1822047;76;38164;-64
2021/04/15 13:45:40;;;;;;;22.00;19.90;;;;;;;5.26;77.75;97890.47;1811545;79;21040;-65
2021/04/15 13:48:10;;;;;;;23.70;21.50;;;;;;;5.31;77.60;97896.33;1811594;79;21973;-64
2021/04/15 13:51:20;;;;;;;23.02;20.60;;;;;;;5.26;77.62;97890.47;1811506;79;21049;-64
2021/04/15 13:53:57;;;;;;;21.70;19.48;;;;;;;5.25;77.75;97888.86;1812557;79;21547;-64
2021/04/15 13:57:00;;;;;;;20.25;18.15;;;;;;;5.24;77.81;97893.91;1812696;79;20946;-65
2021/04/15 13:59:49;;;;;;;24.43;21.85;;;;;;;5.24;78.02;97887.28;1812568;79;20978;-64
2021/04/15 14:02:23;;;;;;;24.75;22.22;;;;;;;5.27;78.07;97889.95;1812515;79;21366;-65
2021/04/15 14:04:58;;;;;;;25.72;23.22;;;;;;;5.28;78.07;97893.66;1812528;79;21005;-64
2021/04/15 14:10:20;;;;;;;22.35;20.05;;;;;;;5.22;77.71;97889.39;1812521;79;20926;-66
2021/04/15 14:13:17;;;;;;;22.82;20.62;;;;;;;5.21;77.97;97887.78;1811673;79;20916;-66
2021/04/15 14:15:56;;;;;;;25.45;22.87;;;;;;;5.16;78.06;97893.06;1812774;79;22059;-65
2021/04/15 14:18:33;;;;;;;27.93;25.25;;;;;;;5.13;78.21;97893.60;1812501;79;20938;-63
2021/04/15 14:21:21;;;;;;;23.92;21.62;;;;;;;5.11;78.24;97897.02;1812502;79;20946;-63
2021/04/15 14:23:54;;;;;;;27.17;24.47;;;;;;;5.06;78.31;97885.06;1812435;79;21069;-63
2021/04/15 14:26:35;;;;;;;29.32;26.23;;;;;;;5.01;78.42;97888.21;1812537;79;21014;-63
2021/04/15 14:29:31;;;;;;;29.55;26.65;;;;;;;5.00;78.57;97892.72;1812608;79;22163;-67
2021/04/15 14:32:17;;;;;;;27.35;24.45;;;;;;;4.98;78.57;97887.39;1812887;79;20958;-65
2021/04/15 14:34:48;;;;;;;23.55;21.07;;;;;;;4.88;78.74;97878.83;1812599;79;21441;-66
2021/04/15 14:37:28;;;;;;;21.40;19.12;;;;;;;4.85;78.92;97880.14;1812597;79;21477;-64
2021/04/15 14:40:03;;;;;;;21.82;19.52;;;;;;;4.89;78.92;97887.08;1814516;79;20883;-66
2021/04/15 14:42:39;;;;;;;23.60;21.27;;;;;;;4.92;79.12;97878.61;1816815;77;21991;-65
2021/04/15 14:45:29;;;;;;;24.40;21.80;;;;;;;4.92;79.11;97878.61;1818781;79;20899;-65
2021/04/15 14:47:59;;;;;;;19.27;17.25;;;;;;;4.96;79.24;97882.34;1810479;79;20946;-62
2021/04/15 14:50:35;;;;;;;17.62;15.83;;;;;;;5.02;79.21;97889.79;1818804;79;20953;-64
2021/04/15 14:53:14;;;;;;;18.25;16.52;;;;;;;5.06;79.09;97888.24;1818538;79;20989;-65
